Terminal Aerodrome Forecast
Issued by NWS

Current Version | Previous Version | Graphics & Text | Print | Product List | Glossary Off
Versions: 1 2 3 4 5 6 7 8 9 10 11 12 13 14 15 16 17 18 19 20 21 22 23 24 25 26 27

569
FTUS41 KRLX 291131 CCA
TAFCKB
TAF COR
KCKB 291131Z 2912/3012 26006KT P6SM SCT015
     FM291600 26005KT P6SM BKN050
     FM291700 26006KT P6SM SCT050
     FM301100 20004KT P6SM SCT060=

USA.gov is the U.S. government's official web portal to all federal, state and local government web resources and services.